sensor_id;sensor_type;location;lat;lon;timestamp;P1;durP1;ratioP1;P2;durP2;ratioP2
6689;SDS011;3382;51.576;8.076;2022-11-12T00:00:16;4.30;;;2.30;;
6689;SDS011;3382;51.576;8.076;2022-11-12T00:02:41;3.93;;;2.30;;
6689;SDS011;3382;51.576;8.076;2022-11-12T00:05:07;4.20;;;2.67;;
6689;SDS011;3382;51.576;8.076;2022-11-12T00:07:33;3.07;;;2.43;;
6689;SDS011;3382;51.576;8.076;2022-11-12T00:09:59;3.23;;;2.30;;
6689;SDS011;3382;51.576;8.076;2022-11-12T00:12:24;2.87;;;2.20;;
6689;SDS011;3382;51.576;8.076;2022-11-12T00:14:50;4.47;;;2.20;;
6689;SDS011;3382;51.576;8.076;2022-11-12T00:17:15;2.93;;;2.40;;
6689;SDS011;3382;51.576;8.076;2022-11-12T00:19:41;4.80;;;2.83;;
6689;SDS011;3382;51.576;8.076;2022-11-12T00:22:07;2.37;;;2.17;;
6689;SDS011;3382;51.576;8.076;2022-11-12T00:24:32;4.07;;;2.13;;
6689;SDS011;3382;51.576;8.076;2022-11-12T00:26:58;4.03;;;2.57;;
6689;SDS011;3382;51.576;8.076;2022-11-12T00:29:23;4.37;;;2.70;;
6689;SDS011;3382;51.576;8.076;2022-11-12T00:31:49;4.70;;;2.83;;
6689;SDS011;3382;51.576;8.076;2022-11-12T00:34:14;5.20;;;2.60;;
6689;SDS011;3382;51.576;8.076;2022-11-12T00:36:40;3.60;;;2.00;;
6689;SDS011;3382;51.576;8.076;2022-11-12T00:39:06;4.87;;;2.53;;
6689;SDS011;3382;51.576;8.076;2022-11-12T00:41:31;2.77;;;2.40;;
6689;SDS011;3382;51.576;8.076;2022-11-12T00:43:57;5.77;;;2.57;;
6689;SDS011;3382;51.576;8.076;2022-11-12T00:46:22;3.10;;;2.60;;
6689;SDS011;3382;51.576;8.076;2022-11-12T00:48:48;3.27;;;2.37;;
6689;SDS011;3382;51.576;8.076;2022-11-12T00:51:14;2.43;;;2.03;;
6689;SDS011;3382;51.576;8.076;2022-11-12T00:53:39;2.63;;;2.30;;
6689;SDS011;3382;51.576;8.076;2022-11-12T00:56:05;2.77;;;2.50;;
6689;SDS011;3382;51.576;8.076;2022-11-12T00:58:32;3.07;;;2.40;;
6689;SDS011;3382;51.576;8.076;2022-11-12T01:01:06;2.97;;;2.50;;
6689;SDS011;3382;51.576;8.076;2022-11-12T01:03:35;2.73;;;2.10;;
6689;SDS011;3382;51.576;8.076;2022-11-12T01:06:05;4.50;;;3.03;;
6689;SDS011;3382;51.576;8.076;2022-11-12T01:08:32;3.70;;;2.47;;
6689;SDS011;3382;51.576;8.076;2022-11-12T01:13:42;4.37;;;3.13;;
6689;SDS011;3382;51.576;8.076;2022-11-12T01:16:17;3.60;;;3.07;;
6689;SDS011;3382;51.576;8.076;2022-11-12T01:18:44;4.53;;;3.23;;
6689;SDS011;3382;51.576;8.076;2022-11-12T01:21:10;4.40;;;2.90;;
6689;SDS011;3382;51.576;8.076;2022-11-12T01:23:38;5.83;;;2.77;;
6689;SDS011;3382;51.576;8.076;2022-11-12T01:26:06;3.60;;;3.20;;
6689;SDS011;3382;51.576;8.076;2022-11-12T01:28:33;4.07;;;3.33;;
6689;SDS011;3382;51.576;8.076;2022-11-12T01:33:40;5.53;;;3.67;;
6689;SDS011;3382;51.576;8.076;2022-11-12T01:36:06;6.23;;;3.40;;
6689;SDS011;3382;51.576;8.076;2022-11-12T01:38:33;3.57;;;2.80;;
6689;SDS011;3382;51.576;8.076;2022-11-12T01:41:03;3.57;;;2.67;;
6689;SDS011;3382;51.576;8.076;2022-11-12T01:43:30;5.67;;;3.10;;
6689;SDS011;3382;51.576;8.076;2022-11-12T01:45:55;4.23;;;3.47;;
6689;SDS011;3382;51.576;8.076;2022-11-12T01:48:24;3.43;;;2.93;;
6689;SDS011;3382;51.576;8.076;2022-11-12T01:50:57;3.83;;;3.47;;
6689;SDS011;3382;51.576;8.076;2022-11-12T01:53:23;7.43;;;4.00;;
6689;SDS011;3382;51.576;8.076;2022-11-12T01:55:52;5.03;;;3.40;;
6689;SDS011;3382;51.576;8.076;2022-11-12T01:58:20;6.93;;;3.27;;
6689;SDS011;3382;51.576;8.076;2022-11-12T02:00:50;4.37;;;3.60;;
6689;SDS011;3382;51.576;8.076;2022-11-12T02:03:20;5.33;;;4.07;;
6689;SDS011;3382;51.576;8.076;2022-11-12T02:05:48;4.53;;;4.03;;
6689;SDS011;3382;51.576;8.076;2022-11-12T02:08:18;4.37;;;3.90;;
6689;SDS011;3382;51.576;8.076;2022-11-12T02:10:45;5.37;;;3.70;;
6689;SDS011;3382;51.576;8.076;2022-11-12T02:13:11;7.67;;;3.97;;
6689;SDS011;3382;51.576;8.076;2022-11-12T02:15:55;7.77;;;4.20;;
6689;SDS011;3382;51.576;8.076;2022-11-12T02:18:21;5.63;;;4.40;;
6689;SDS011;3382;51.576;8.076;2022-11-12T02:20:52;4.97;;;3.43;;
6689;SDS011;3382;51.576;8.076;2022-11-12T02:23:19;6.83;;;4.03;;
6689;SDS011;3382;51.576;8.076;2022-11-12T02:25:45;6.13;;;3.80;;
6689;SDS011;3382;51.576;8.076;2022-11-12T02:28:10;5.37;;;3.73;;
6689;SDS011;3382;51.576;8.076;2022-11-12T02:30:44;6.33;;;3.77;;
6689;SDS011;3382;51.576;8.076;2022-11-12T02:33:11;7.40;;;3.97;;
6689;SDS011;3382;51.576;8.076;2022-11-12T02:35:36;7.80;;;4.53;;
6689;SDS011;3382;51.576;8.076;2022-11-12T02:38:03;5.23;;;3.83;;
6689;SDS011;3382;51.576;8.076;2022-11-12T02:40:29;9.77;;;4.23;;
6689;SDS011;3382;51.576;8.076;2022-11-12T02:42:54;4.73;;;4.07;;
6689;SDS011;3382;51.576;8.076;2022-11-12T02:45:20;6.03;;;4.30;;
6689;SDS011;3382;51.576;8.076;2022-11-12T02:47:46;5.77;;;4.23;;
6689;SDS011;3382;51.576;8.076;2022-11-12T02:50:12;5.83;;;4.27;;
6689;SDS011;3382;51.576;8.076;2022-11-12T02:52:38;4.30;;;3.60;;
6689;SDS011;3382;51.576;8.076;2022-11-12T02:55:04;4.27;;;3.73;;
6689;SDS011;3382;51.576;8.076;2022-11-12T02:57:35;6.63;;;3.93;;
6689;SDS011;3382;51.576;8.076;2022-11-12T03:00:05;9.47;;;3.93;;
6689;SDS011;3382;51.576;8.076;2022-11-12T03:02:33;5.23;;;4.07;;
6689;SDS011;3382;51.576;8.076;2022-11-12T03:04:59;4.33;;;3.67;;
6689;SDS011;3382;51.576;8.076;2022-11-12T03:07:24;6.53;;;4.30;;
6689;SDS011;3382;51.576;8.076;2022-11-12T03:09:50;6.33;;;4.30;;
6689;SDS011;3382;51.576;8.076;2022-11-12T03:12:16;5.83;;;4.23;;
6689;SDS011;3382;51.576;8.076;2022-11-12T03:14:42;5.90;;;4.60;;
6689;SDS011;3382;51.576;8.076;2022-11-12T03:17:07;6.20;;;4.27;;
6689;SDS011;3382;51.576;8.076;2022-11-12T03:19:33;5.10;;;4.10;;
6689;SDS011;3382;51.576;8.076;2022-11-12T03:21:58;6.03;;;4.37;;
6689;SDS011;3382;51.576;8.076;2022-11-12T03:24:24;4.87;;;4.30;;
6689;SDS011;3382;51.576;8.076;2022-11-12T03:26:50;6.10;;;4.93;;
6689;SDS011;3382;51.576;8.076;2022-11-12T03:29:15;8.50;;;4.90;;
6689;SDS011;3382;51.576;8.076;2022-11-12T03:31:41;5.80;;;4.43;;
6689;SDS011;3382;51.576;8.076;2022-11-12T03:34:07;7.13;;;4.77;;
6689;SDS011;3382;51.576;8.076;2022-11-12T03:36:32;5.30;;;4.37;;
6689;SDS011;3382;51.576;8.076;2022-11-12T03:38:58;5.70;;;4.73;;
6689;SDS011;3382;51.576;8.076;2022-11-12T03:41:23;6.77;;;4.97;;
6689;SDS011;3382;51.576;8.076;2022-11-12T03:43:49;6.00;;;4.77;;
6689;SDS011;3382;51.576;8.076;2022-11-12T03:46:14;6.57;;;4.43;;
6689;SDS011;3382;51.576;8.076;2022-11-12T03:48:40;5.93;;;4.00;;
6689;SDS011;3382;51.576;8.076;2022-11-12T03:51:06;10.27;;;4.80;;
6689;SDS011;3382;51.576;8.076;2022-11-12T03:53:31;5.23;;;4.50;;
6689;SDS011;3382;51.576;8.076;2022-11-12T03:55:57;5.93;;;4.33;;
6689;SDS011;3382;51.576;8.076;2022-11-12T03:58:22;4.23;;;3.77;;
6689;SDS011;3382;51.576;8.076;2022-11-12T04:00:48;4.80;;;3.57;;
6689;SDS011;3382;51.576;8.076;2022-11-12T04:03:13;4.90;;;3.83;;
6689;SDS011;3382;51.576;8.076;2022-11-12T04:05:39;5.67;;;4.20;;
6689;SDS011;3382;51.576;8.076;2022-11-12T04:08:23;5.63;;;4.03;;
6689;SDS011;3382;51.576;8.076;2022-11-12T04:11:08;4.40;;;3.30;;
6689;SDS011;3382;51.576;8.076;2022-11-12T04:13:39;5.00;;;3.33;;
6689;SDS011;3382;51.576;8.076;2022-11-12T04:18:52;7.13;;;3.30;;
6689;SDS011;3382;51.576;8.076;2022-11-12T04:21:38;3.77;;;3.00;;
6689;SDS011;3382;51.576;8.076;2022-11-12T04:24:23;5.80;;;3.47;;
6689;SDS011;3382;51.576;8.076;2022-11-12T04:27:16;5.43;;;3.70;;
6689;SDS011;3382;51.576;8.076;2022-11-12T04:29:52;4.53;;;3.40;;
6689;SDS011;3382;51.576;8.076;2022-11-12T04:32:39;3.60;;;3.30;;
6689;SDS011;3382;51.576;8.076;2022-11-12T04:35:09;4.23;;;3.27;;
6689;SDS011;3382;51.576;8.076;2022-11-12T04:37:35;4.77;;;3.33;;
6689;SDS011;3382;51.576;8.076;2022-11-12T04:40:11;6.80;;;3.77;;
6689;SDS011;3382;51.576;8.076;2022-11-12T04:43:00;5.57;;;4.17;;
6689;SDS011;3382;51.576;8.076;2022-11-12T04:45:46;4.17;;;3.77;;
6689;SDS011;3382;51.576;8.076;2022-11-12T04:48:13;6.27;;;3.67;;
6689;SDS011;3382;51.576;8.076;2022-11-12T04:50:39;5.23;;;3.57;;
6689;SDS011;3382;51.576;8.076;2022-11-12T04:53:06;3.63;;;3.27;;
6689;SDS011;3382;51.576;8.076;2022-11-12T04:55:32;4.00;;;3.60;;
6689;SDS011;3382;51.576;8.076;2022-11-12T04:57:58;7.67;;;3.97;;
6689;SDS011;3382;51.576;8.076;2022-11-12T05:00:23;6.60;;;3.80;;
6689;SDS011;3382;51.576;8.076;2022-11-12T05:02:49;4.63;;;3.57;;
6689;SDS011;3382;51.576;8.076;2022-11-12T05:05:15;4.07;;;3.47;;
6689;SDS011;3382;51.576;8.076;2022-11-12T05:07:41;6.37;;;3.20;;
6689;SDS011;3382;51.576;8.076;2022-11-12T05:10:06;5.03;;;3.40;;
6689;SDS011;3382;51.576;8.076;2022-11-12T05:12:33;7.10;;;3.50;;
6689;SDS011;3382;51.576;8.076;2022-11-12T05:14:58;3.50;;;3.20;;
6689;SDS011;3382;51.576;8.076;2022-11-12T05:17:24;5.40;;;3.33;;
6689;SDS011;3382;51.576;8.076;2022-11-12T05:19:49;4.80;;;3.73;;
6689;SDS011;3382;51.576;8.076;2022-11-12T05:22:15;7.63;;;3.67;;
6689;SDS011;3382;51.576;8.076;2022-11-12T05:24:41;3.57;;;3.07;;
6689;SDS011;3382;51.576;8.076;2022-11-12T05:27:09;4.60;;;3.63;;
6689;SDS011;3382;51.576;8.076;2022-11-12T05:29:36;3.50;;;3.00;;
6689;SDS011;3382;51.576;8.076;2022-11-12T05:32:03;4.33;;;3.10;;
6689;SDS011;3382;51.576;8.076;2022-11-12T05:34:29;3.50;;;3.20;;
6689;SDS011;3382;51.576;8.076;2022-11-12T05:36:55;3.47;;;3.07;;
6689;SDS011;3382;51.576;8.076;2022-11-12T05:39:21;3.47;;;2.60;;
6689;SDS011;3382;51.576;8.076;2022-11-12T05:41:47;4.47;;;2.40;;
6689;SDS011;3382;51.576;8.076;2022-11-12T05:44:13;2.97;;;2.67;;
6689;SDS011;3382;51.576;8.076;2022-11-12T05:46:38;5.00;;;3.33;;
6689;SDS011;3382;51.576;8.076;2022-11-12T05:49:04;3.47;;;3.00;;
6689;SDS011;3382;51.576;8.076;2022-11-12T05:51:30;3.93;;;2.73;;
6689;SDS011;3382;51.576;8.076;2022-11-12T05:53:55;4.80;;;2.87;;
6689;SDS011;3382;51.576;8.076;2022-11-12T05:56:21;4.50;;;2.77;;
6689;SDS011;3382;51.576;8.076;2022-11-12T05:58:47;4.10;;;2.90;;
6689;SDS011;3382;51.576;8.076;2022-11-12T06:01:12;3.00;;;2.70;;
6689;SDS011;3382;51.576;8.076;2022-11-12T06:03:38;4.67;;;3.10;;
6689;SDS011;3382;51.576;8.076;2022-11-12T06:06:04;4.80;;;2.90;;
6689;SDS011;3382;51.576;8.076;2022-11-12T06:08:29;5.00;;;3.17;;
6689;SDS011;3382;51.576;8.076;2022-11-12T06:10:55;3.63;;;2.72;;
6689;SDS011;3382;51.576;8.076;2022-11-12T06:13:22;3.43;;;2.70;;
6689;SDS011;3382;51.576;8.076;2022-11-12T06:15:48;4.87;;;3.60;;
6689;SDS011;3382;51.576;8.076;2022-11-12T06:18:14;5.47;;;4.20;;
6689;SDS011;3382;51.576;8.076;2022-11-12T06:20:40;4.40;;;4.00;;
6689;SDS011;3382;51.576;8.076;2022-11-12T06:23:05;6.27;;;4.37;;
6689;SDS011;3382;51.576;8.076;2022-11-12T06:25:31;4.50;;;3.83;;
6689;SDS011;3382;51.576;8.076;2022-11-12T06:27:57;4.63;;;3.87;;
6689;SDS011;3382;51.576;8.076;2022-11-12T06:30:22;6.23;;;3.87;;
6689;SDS011;3382;51.576;8.076;2022-11-12T06:32:48;5.37;;;4.10;;
6689;SDS011;3382;51.576;8.076;2022-11-12T06:35:16;4.97;;;4.00;;
6689;SDS011;3382;51.576;8.076;2022-11-12T06:37:44;5.10;;;3.67;;
6689;SDS011;3382;51.576;8.076;2022-11-12T06:40:11;6.80;;;4.00;;
6689;SDS011;3382;51.576;8.076;2022-11-12T06:42:37;5.67;;;4.10;;
6689;SDS011;3382;51.576;8.076;2022-11-12T06:45:03;5.40;;;4.20;;
6689;SDS011;3382;51.576;8.076;2022-11-12T06:47:29;5.73;;;4.03;;
6689;SDS011;3382;51.576;8.076;2022-11-12T06:49:55;4.60;;;3.97;;
6689;SDS011;3382;51.576;8.076;2022-11-12T06:52:20;5.77;;;3.70;;
6689;SDS011;3382;51.576;8.076;2022-11-12T06:54:46;4.57;;;3.67;;
6689;SDS011;3382;51.576;8.076;2022-11-12T06:57:11;5.67;;;4.07;;
6689;SDS011;3382;51.576;8.076;2022-11-12T06:59:37;7.93;;;4.10;;
6689;SDS011;3382;51.576;8.076;2022-11-12T07:02:02;5.60;;;4.10;;
6689;SDS011;3382;51.576;8.076;2022-11-12T07:04:29;4.63;;;3.43;;
6689;SDS011;3382;51.576;8.076;2022-11-12T07:06:55;4.43;;;3.87;;
6689;SDS011;3382;51.576;8.076;2022-11-12T07:09:20;8.67;;;4.03;;
6689;SDS011;3382;51.576;8.076;2022-11-12T07:11:46;5.60;;;4.20;;
6689;SDS011;3382;51.576;8.076;2022-11-12T07:14:11;5.63;;;3.90;;
6689;SDS011;3382;51.576;8.076;2022-11-12T07:16:37;6.07;;;3.53;;
6689;SDS011;3382;51.576;8.076;2022-11-12T07:19:03;5.70;;;3.97;;
6689;SDS011;3382;51.576;8.076;2022-11-12T07:21:28;4.40;;;3.70;;
6689;SDS011;3382;51.576;8.076;2022-11-12T07:23:54;4.50;;;3.60;;
6689;SDS011;3382;51.576;8.076;2022-11-12T07:28:47;5.37;;;3.93;;
6689;SDS011;3382;51.576;8.076;2022-11-12T07:31:14;6.10;;;3.97;;
6689;SDS011;3382;51.576;8.076;2022-11-12T07:33:41;4.30;;;3.77;;
6689;SDS011;3382;51.576;8.076;2022-11-12T07:36:11;8.33;;;4.17;;
6689;SDS011;3382;51.576;8.076;2022-11-12T07:38:39;9.73;;;4.50;;
6689;SDS011;3382;51.576;8.076;2022-11-12T07:43:34;7.57;;;3.43;;
6689;SDS011;3382;51.576;8.076;2022-11-12T07:46:02;4.97;;;3.43;;
6689;SDS011;3382;51.576;8.076;2022-11-12T07:48:32;4.20;;;3.70;;
6689;SDS011;3382;51.576;8.076;2022-11-12T07:51:02;7.50;;;4.13;;
6689;SDS011;3382;51.576;8.076;2022-11-12T07:53:32;6.80;;;4.10;;
6689;SDS011;3382;51.576;8.076;2022-11-12T07:55:59;6.73;;;3.97;;
6689;SDS011;3382;51.576;8.076;2022-11-12T07:58:26;4.60;;;4.10;;
6689;SDS011;3382;51.576;8.076;2022-11-12T08:00:54;6.77;;;4.47;;
6689;SDS011;3382;51.576;8.076;2022-11-12T08:03:20;5.30;;;3.63;;
6689;SDS011;3382;51.576;8.076;2022-11-12T08:05:45;7.50;;;4.30;;
6689;SDS011;3382;51.576;8.076;2022-11-12T08:08:12;5.97;;;4.07;;
6689;SDS011;3382;51.576;8.076;2022-11-12T08:10:37;4.90;;;3.90;;
6689;SDS011;3382;51.576;8.076;2022-11-12T08:13:03;4.53;;;3.60;;
6689;SDS011;3382;51.576;8.076;2022-11-12T08:15:29;5.83;;;4.63;;
6689;SDS011;3382;51.576;8.076;2022-11-12T08:17:55;7.20;;;4.40;;
6689;SDS011;3382;51.576;8.076;2022-11-12T08:20:21;7.17;;;3.90;;
6689;SDS011;3382;51.576;8.076;2022-11-12T08:22:47;5.17;;;4.17;;
6689;SDS011;3382;51.576;8.076;2022-11-12T08:25:13;4.67;;;3.53;;
6689;SDS011;3382;51.576;8.076;2022-11-12T08:27:39;6.20;;;4.40;;
6689;SDS011;3382;51.576;8.076;2022-11-12T08:30:05;8.37;;;3.63;;
6689;SDS011;3382;51.576;8.076;2022-11-12T08:32:31;6.10;;;3.70;;
6689;SDS011;3382;51.576;8.076;2022-11-12T08:34:56;5.93;;;3.50;;
6689;SDS011;3382;51.576;8.076;2022-11-12T08:37:22;5.60;;;3.60;;
6689;SDS011;3382;51.576;8.076;2022-11-12T08:39:48;4.10;;;3.70;;
6689;SDS011;3382;51.576;8.076;2022-11-12T08:42:13;4.97;;;4.00;;
6689;SDS011;3382;51.576;8.076;2022-11-12T08:44:39;4.73;;;4.00;;
6689;SDS011;3382;51.576;8.076;2022-11-12T08:47:04;4.50;;;3.67;;
6689;SDS011;3382;51.576;8.076;2022-11-12T08:49:30;12.20;;;7.17;;
6689;SDS011;3382;51.576;8.076;2022-11-12T08:51:55;16.90;;;6.07;;
6689;SDS011;3382;51.576;8.076;2022-11-12T08:54:21;9.43;;;6.23;;
6689;SDS011;3382;51.576;8.076;2022-11-12T08:56:47;6.67;;;5.07;;
6689;SDS011;3382;51.576;8.076;2022-11-12T08:59:13;9.53;;;4.47;;
6689;SDS011;3382;51.576;8.076;2022-11-12T09:01:39;5.47;;;4.13;;
6689;SDS011;3382;51.576;8.076;2022-11-12T09:04:04;8.57;;;4.53;;
6689;SDS011;3382;51.576;8.076;2022-11-12T09:06:30;4.93;;;4.13;;
6689;SDS011;3382;51.576;8.076;2022-11-12T09:08:55;4.53;;;3.80;;
6689;SDS011;3382;51.576;8.076;2022-11-12T09:11:21;5.83;;;4.57;;
6689;SDS011;3382;51.576;8.076;2022-11-12T09:13:47;4.47;;;3.87;;
6689;SDS011;3382;51.576;8.076;2022-11-12T09:16:13;6.57;;;4.53;;
6689;SDS011;3382;51.576;8.076;2022-11-12T09:18:39;11.83;;;4.20;;
6689;SDS011;3382;51.576;8.076;2022-11-12T09:21:09;9.17;;;3.80;;
6689;SDS011;3382;51.576;8.076;2022-11-12T09:23:36;6.33;;;4.37;;
6689;SDS011;3382;51.576;8.076;2022-11-12T09:26:02;5.67;;;3.80;;
6689;SDS011;3382;51.576;8.076;2022-11-12T09:28:29;6.03;;;4.43;;
6689;SDS011;3382;51.576;8.076;2022-11-12T09:30:55;4.73;;;4.23;;
6689;SDS011;3382;51.576;8.076;2022-11-12T09:33:23;5.10;;;4.13;;
6689;SDS011;3382;51.576;8.076;2022-11-12T09:35:51;6.17;;;4.50;;
6689;SDS011;3382;51.576;8.076;2022-11-12T09:38:17;8.27;;;4.53;;
6689;SDS011;3382;51.576;8.076;2022-11-12T09:43:34;8.40;;;4.70;;
6689;SDS011;3382;51.576;8.076;2022-11-12T09:46:06;4.60;;;4.00;;
6689;SDS011;3382;51.576;8.076;2022-11-12T09:48:56;8.20;;;4.40;;
6689;SDS011;3382;51.576;8.076;2022-11-12T09:51:29;5.17;;;4.67;;
6689;SDS011;3382;51.576;8.076;2022-11-12T09:53:58;6.23;;;4.20;;
6689;SDS011;3382;51.576;8.076;2022-11-12T09:56:30;5.37;;;4.37;;
6689;SDS011;3382;51.576;8.076;2022-11-12T09:58:55;8.53;;;5.67;;
6689;SDS011;3382;51.576;8.076;2022-11-12T10:04:20;7.90;;;5.53;;
6689;SDS011;3382;51.576;8.076;2022-11-12T10:23:41;5.57;;;4.00;;
6689;SDS011;3382;51.576;8.076;2022-11-12T10:26:11;4.87;;;3.83;;
6689;SDS011;3382;51.576;8.076;2022-11-12T10:31:15;5.70;;;3.77;;
6689;SDS011;3382;51.576;8.076;2022-11-12T10:33:42;9.07;;;4.60;;
6689;SDS011;3382;51.576;8.076;2022-11-12T10:36:15;7.87;;;5.40;;
6689;SDS011;3382;51.576;8.076;2022-11-12T10:38:49;8.03;;;5.50;;
6689;SDS011;3382;51.576;8.076;2022-11-12T10:41:22;6.00;;;5.00;;
6689;SDS011;3382;51.576;8.076;2022-11-12T10:43:54;8.77;;;5.07;;
6689;SDS011;3382;51.576;8.076;2022-11-12T10:49:01;5.13;;;4.00;;
6689;SDS011;3382;51.576;8.076;2022-11-12T10:51:35;6.40;;;3.97;;
6689;SDS011;3382;51.576;8.076;2022-11-12T10:54:18;5.07;;;3.73;;
6689;SDS011;3382;51.576;8.076;2022-11-12T10:56:43;5.27;;;4.03;;
6689;SDS011;3382;51.576;8.076;2022-11-12T10:59:13;6.07;;;4.20;;
6689;SDS011;3382;51.576;8.076;2022-11-12T11:01:56;6.53;;;4.87;;
6689;SDS011;3382;51.576;8.076;2022-11-12T11:07:04;11.07;;;6.83;;
6689;SDS011;3382;51.576;8.076;2022-11-12T11:09:39;8.07;;;5.67;;
6689;SDS011;3382;51.576;8.076;2022-11-12T11:15:03;6.17;;;4.27;;
6689;SDS011;3382;51.576;8.076;2022-11-12T11:17:42;5.30;;;4.00;;
6689;SDS011;3382;51.576;8.076;2022-11-12T11:20:24;4.27;;;2.80;;
6689;SDS011;3382;51.576;8.076;2022-11-12T11:22:56;3.97;;;2.70;;
6689;SDS011;3382;51.576;8.076;2022-11-12T11:25:28;3.57;;;2.90;;
6689;SDS011;3382;51.576;8.076;2022-11-12T11:30:56;3.80;;;3.40;;
6689;SDS011;3382;51.576;8.076;2022-11-12T11:33:40;6.20;;;3.80;;
6689;SDS011;3382;51.576;8.076;2022-11-12T11:36:17;5.30;;;3.43;;
6689;SDS011;3382;51.576;8.076;2022-11-12T11:39:01;5.60;;;3.97;;
6689;SDS011;3382;51.576;8.076;2022-11-12T11:41:36;4.37;;;3.97;;
6689;SDS011;3382;51.576;8.076;2022-11-12T11:52:26;4.33;;;3.70;;
6689;SDS011;3382;51.576;8.076;2022-11-12T11:54:59;6.33;;;4.30;;
6689;SDS011;3382;51.576;8.076;2022-11-12T11:58:02;4.97;;;4.23;;
6689;SDS011;3382;51.576;8.076;2022-11-12T12:06:21;7.27;;;5.50;;
6689;SDS011;3382;51.576;8.076;2022-11-12T12:14:45;9.30;;;5.60;;
6689;SDS011;3382;51.576;8.076;2022-11-12T12:22:55;7.10;;;5.27;;
6689;SDS011;3382;51.576;8.076;2022-11-12T12:25:28;8.27;;;5.23;;
6689;SDS011;3382;51.576;8.076;2022-11-12T12:28:15;7.67;;;4.60;;
6689;SDS011;3382;51.576;8.076;2022-11-12T12:30:46;9.00;;;4.73;;
6689;SDS011;3382;51.576;8.076;2022-11-12T12:35:58;7.23;;;5.00;;
6689;SDS011;3382;51.576;8.076;2022-11-12T12:43:39;10.67;;;4.60;;
6689;SDS011;3382;51.576;8.076;2022-11-12T12:46:10;6.83;;;4.30;;
6689;SDS011;3382;51.576;8.076;2022-11-12T12:48:42;8.63;;;4.27;;
6689;SDS011;3382;51.576;8.076;2022-11-12T12:51:09;3.30;;;2.77;;
6689;SDS011;3382;51.576;8.076;2022-11-12T12:53:35;6.70;;;2.90;;
6689;SDS011;3382;51.576;8.076;2022-11-12T13:09:05;5.40;;;3.40;;
6689;SDS011;3382;51.576;8.076;2022-11-12T13:11:49;5.87;;;3.13;;
6689;SDS011;3382;51.576;8.076;2022-11-12T13:17:02;3.73;;;2.77;;
6689;SDS011;3382;51.576;8.076;2022-11-12T13:19:44;5.10;;;3.20;;
6689;SDS011;3382;51.576;8.076;2022-11-12T13:25:01;6.90;;;2.97;;
6689;SDS011;3382;51.576;8.076;2022-11-12T13:32:40;4.80;;;3.37;;
6689;SDS011;3382;51.576;8.076;2022-11-12T13:37:46;5.80;;;3.50;;
6689;SDS011;3382;51.576;8.076;2022-11-12T13:45:37;6.17;;;4.33;;
6689;SDS011;3382;51.576;8.076;2022-11-12T13:48:07;5.53;;;3.60;;
6689;SDS011;3382;51.576;8.076;2022-11-12T13:50:39;5.17;;;3.70;;
6689;SDS011;3382;51.576;8.076;2022-11-12T13:53:06;4.87;;;3.80;;
6689;SDS011;3382;51.576;8.076;2022-11-12T13:55:34;5.97;;;4.20;;
6689;SDS011;3382;51.576;8.076;2022-11-12T13:57:59;9.57;;;3.87;;
6689;SDS011;3382;51.576;8.076;2022-11-12T14:00:26;5.47;;;3.70;;
6689;SDS011;3382;51.576;8.076;2022-11-12T14:02:59;6.03;;;4.00;;
6689;SDS011;3382;51.576;8.076;2022-11-12T14:05:32;10.27;;;3.73;;
6689;SDS011;3382;51.576;8.076;2022-11-12T14:08:12;5.70;;;4.00;;
6689;SDS011;3382;51.576;8.076;2022-11-12T14:17:03;9.23;;;4.30;;
6689;SDS011;3382;51.576;8.076;2022-11-12T14:22:41;7.53;;;4.50;;
6689;SDS011;3382;51.576;8.076;2022-11-12T14:25:26;10.00;;;4.40;;
6689;SDS011;3382;51.576;8.076;2022-11-12T14:27:53;10.60;;;3.80;;
6689;SDS011;3382;51.576;8.076;2022-11-12T14:30:26;9.70;;;5.43;;
6689;SDS011;3382;51.576;8.076;2022-11-12T14:33:08;19.73;;;11.37;;
6689;SDS011;3382;51.576;8.076;2022-11-12T14:35:38;11.73;;;4.80;;
6689;SDS011;3382;51.576;8.076;2022-11-12T14:38:05;11.10;;;4.40;;
6689;SDS011;3382;51.576;8.076;2022-11-12T14:40:41;7.87;;;4.20;;
6689;SDS011;3382;51.576;8.076;2022-11-12T14:43:17;5.63;;;3.90;;
6689;SDS011;3382;51.576;8.076;2022-11-12T14:45:50;10.00;;;4.07;;
6689;SDS011;3382;51.576;8.076;2022-11-12T14:48:18;6.20;;;3.67;;
6689;SDS011;3382;51.576;8.076;2022-11-12T14:50:44;5.43;;;4.10;;
6689;SDS011;3382;51.576;8.076;2022-11-12T14:53:24;4.67;;;3.80;;
6689;SDS011;3382;51.576;8.076;2022-11-12T14:55:54;5.83;;;4.07;;
6689;SDS011;3382;51.576;8.076;2022-11-12T14:58:21;7.27;;;3.90;;
6689;SDS011;3382;51.576;8.076;2022-11-12T15:00:51;7.10;;;4.20;;
6689;SDS011;3382;51.576;8.076;2022-11-12T15:03:25;7.37;;;4.70;;
6689;SDS011;3382;51.576;8.076;2022-11-12T15:08:34;9.53;;;4.63;;
6689;SDS011;3382;51.576;8.076;2022-11-12T15:13:42;5.60;;;4.50;;
6689;SDS011;3382;51.576;8.076;2022-11-12T15:16:08;9.77;;;4.30;;
6689;SDS011;3382;51.576;8.076;2022-11-12T15:18:35;8.17;;;4.80;;
6689;SDS011;3382;51.576;8.076;2022-11-12T15:23:57;10.23;;;4.70;;
6689;SDS011;3382;51.576;8.076;2022-11-12T15:26:37;10.93;;;5.60;;
6689;SDS011;3382;51.576;8.076;2022-11-12T15:37:04;6.70;;;4.77;;
6689;SDS011;3382;51.576;8.076;2022-11-12T15:39:33;9.13;;;4.23;;
6689;SDS011;3382;51.576;8.076;2022-11-12T15:42:11;8.37;;;4.90;;
6689;SDS011;3382;51.576;8.076;2022-11-12T15:44:41;7.17;;;4.80;;
6689;SDS011;3382;51.576;8.076;2022-11-12T15:47:14;7.83;;;5.23;;
6689;SDS011;3382;51.576;8.076;2022-11-12T15:49:47;8.33;;;5.17;;
6689;SDS011;3382;51.576;8.076;2022-11-12T15:52:14;6.10;;;5.00;;
6689;SDS011;3382;51.576;8.076;2022-11-12T15:54:40;8.93;;;4.77;;
6689;SDS011;3382;51.576;8.076;2022-11-12T15:57:07;12.73;;;7.50;;
6689;SDS011;3382;51.576;8.076;2022-11-12T15:59:38;13.43;;;8.50;;
6689;SDS011;3382;51.576;8.076;2022-11-12T16:02:08;10.20;;;7.03;;
6689;SDS011;3382;51.576;8.076;2022-11-12T16:04:37;10.30;;;7.33;;
6689;SDS011;3382;51.576;8.076;2022-11-12T16:07:02;12.90;;;7.23;;
6689;SDS011;3382;51.576;8.076;2022-11-12T16:09:30;12.43;;;7.23;;
6689;SDS011;3382;51.576;8.076;2022-11-12T16:11:57;14.70;;;7.97;;
6689;SDS011;3382;51.576;8.076;2022-11-12T16:14:24;13.03;;;7.40;;
6689;SDS011;3382;51.576;8.076;2022-11-12T16:16:50;17.17;;;8.77;;
6689;SDS011;3382;51.576;8.076;2022-11-12T16:19:16;15.83;;;8.73;;
6689;SDS011;3382;51.576;8.076;2022-11-12T16:21:42;10.90;;;7.17;;
6689;SDS011;3382;51.576;8.076;2022-11-12T16:24:08;12.40;;;6.87;;
6689;SDS011;3382;51.576;8.076;2022-11-12T16:26:33;10.80;;;6.17;;
6689;SDS011;3382;51.576;8.076;2022-11-12T16:29:00;13.33;;;6.27;;
6689;SDS011;3382;51.576;8.076;2022-11-12T16:31:26;10.90;;;7.07;;
6689;SDS011;3382;51.576;8.076;2022-11-12T16:33:52;8.83;;;6.27;;
6689;SDS011;3382;51.576;8.076;2022-11-12T16:36:17;9.27;;;6.40;;
6689;SDS011;3382;51.576;8.076;2022-11-12T16:38:43;9.13;;;6.37;;
6689;SDS011;3382;51.576;8.076;2022-11-12T16:41:10;11.60;;;5.90;;
6689;SDS011;3382;51.576;8.076;2022-11-12T16:43:37;8.97;;;6.03;;
6689;SDS011;3382;51.576;8.076;2022-11-12T16:48:55;8.23;;;6.03;;
6689;SDS011;3382;51.576;8.076;2022-11-12T16:51:21;12.27;;;6.03;;
6689;SDS011;3382;51.576;8.076;2022-11-12T16:53:47;9.50;;;6.13;;
6689;SDS011;3382;51.576;8.076;2022-11-12T16:56:19;8.23;;;5.87;;
6689;SDS011;3382;51.576;8.076;2022-11-12T16:58:46;11.70;;;6.93;;
6689;SDS011;3382;51.576;8.076;2022-11-12T17:01:14;11.20;;;6.37;;
6689;SDS011;3382;51.576;8.076;2022-11-12T17:03:47;11.67;;;6.33;;
6689;SDS011;3382;51.576;8.076;2022-11-12T17:06:13;16.03;;;6.87;;
6689;SDS011;3382;51.576;8.076;2022-11-12T17:08:39;15.27;;;6.47;;
6689;SDS011;3382;51.576;8.076;2022-11-12T17:11:05;12.53;;;7.37;;
6689;SDS011;3382;51.576;8.076;2022-11-12T17:13:34;11.10;;;7.83;;
6689;SDS011;3382;51.576;8.076;2022-11-12T17:16:03;15.27;;;8.93;;
6689;SDS011;3382;51.576;8.076;2022-11-12T17:18:30;12.97;;;8.50;;
6689;SDS011;3382;51.576;8.076;2022-11-12T17:20:56;11.00;;;8.57;;
6689;SDS011;3382;51.576;8.076;2022-11-12T17:23:30;13.37;;;7.50;;
6689;SDS011;3382;51.576;8.076;2022-11-12T17:25:59;11.70;;;8.13;;
6689;SDS011;3382;51.576;8.076;2022-11-12T17:28:26;12.23;;;9.40;;
6689;SDS011;3382;51.576;8.076;2022-11-12T17:33:45;14.03;;;10.40;;
6689;SDS011;3382;51.576;8.076;2022-11-12T17:36:25;14.63;;;10.30;;
6689;SDS011;3382;51.576;8.076;2022-11-12T17:38:55;14.47;;;11.50;;
6689;SDS011;3382;51.576;8.076;2022-11-12T17:41:22;13.27;;;10.33;;
6689;SDS011;3382;51.576;8.076;2022-11-12T17:43:55;16.67;;;10.60;;
6689;SDS011;3382;51.576;8.076;2022-11-12T17:46:24;13.80;;;10.53;;